sensor_id;sensor_type;location;lat;lon;timestamp;pressure;altitude;pressure_sealevel;temperature;humidity
16461;BME280;8341;42.048;24.650;2023-03-20T00:00:32;97630.19;;;7.43;61.18
16461;BME280;8341;42.048;24.650;2023-03-20T00:02:59;97610.63;;;7.48;62.19
16461;BME280;8341;42.048;24.650;2023-03-20T00:05:27;97615.03;;;7.55;61.87
16461;BME280;8341;42.048;24.650;2023-03-20T00:07:55;97613.56;;;7.63;61.17
16461;BME280;8341;42.048;24.650;2023-03-20T00:10:26;97614.34;;;7.64;60.99
16461;BME280;8341;42.048;24.650;2023-03-20T00:12:57;97608.78;;;7.45;61.37
16461;BME280;8341;42.048;24.650;2023-03-20T00:15:29;97605.38;;;7.54;61.74
16461;BME280;8341;42.048;24.650;2023-03-20T00:17:57;97598.88;;;7.51;61.64
16461;BME280;8341;42.048;24.650;2023-03-20T00:20:24;97602.41;;;7.61;61.20
16461;BME280;8341;42.048;24.650;2023-03-20T00:22:51;97606.44;;;7.56;61.53
16461;BME280;8341;42.048;24.650;2023-03-20T00:25:20;97597.84;;;7.58;61.49
16461;BME280;8341;42.048;24.650;2023-03-20T00:27:48;97592.13;;;7.56;61.80
16461;BME280;8341;42.048;24.650;2023-03-20T00:30:19;97594.78;;;7.47;61.77
16461;BME280;8341;42.048;24.650;2023-03-20T00:32:47;97584.16;;;7.40;62.41
16461;BME280;8341;42.048;24.650;2023-03-20T00:35:18;97591.31;;;7.25;62.79
16461;BME280;8341;42.048;24.650;2023-03-20T00:37:46;97585.97;;;7.34;61.75
16461;BME280;8341;42.048;24.650;2023-03-20T00:40:13;97579.00;;;7.33;61.67
16461;BME280;8341;42.048;24.650;2023-03-20T00:42:42;97578.31;;;7.41;61.31
16461;BME280;8341;42.048;24.650;2023-03-20T00:45:12;97577.06;;;7.33;62.27
16461;BME280;8341;42.048;24.650;2023-03-20T00:47:42;97589.59;;;7.40;62.84
16461;BME280;8341;42.048;24.650;2023-03-20T00:50:14;97591.69;;;7.36;62.54
16461;BME280;8341;42.048;24.650;2023-03-20T00:52:42;97577.81;;;7.34;63.60
16461;BME280;8341;42.048;24.650;2023-03-20T00:55:09;97578.03;;;7.27;63.05
16461;BME280;8341;42.048;24.650;2023-03-20T00:57:41;97577.31;;;7.26;63.97
16461;BME280;8341;42.048;24.650;2023-03-20T01:00:19;97578.94;;;7.24;63.66
16461;BME280;8341;42.048;24.650;2023-03-20T01:02:49;97576.78;;;6.97;63.67
16461;BME280;8341;42.048;24.650;2023-03-20T01:05:17;97575.13;;;7.00;63.84
16461;BME280;8341;42.048;24.650;2023-03-20T01:07:44;97580.81;;;6.92;64.00
16461;BME280;8341;42.048;24.650;2023-03-20T01:10:12;97570.56;;;6.75;64.64
16461;BME280;8341;42.048;24.650;2023-03-20T01:12:39;97584.69;;;6.91;64.27
16461;BME280;8341;42.048;24.650;2023-03-20T01:15:15;97574.09;;;6.84;65.02
16461;BME280;8341;42.048;24.650;2023-03-20T01:17:43;97568.56;;;6.88;64.66
16461;BME280;8341;42.048;24.650;2023-03-20T01:20:16;97569.19;;;6.92;64.51
16461;BME280;8341;42.048;24.650;2023-03-20T01:22:44;97569.97;;;6.92;64.30
16461;BME280;8341;42.048;24.650;2023-03-20T01:25:11;97561.53;;;6.90;64.58
16461;BME280;8341;42.048;24.650;2023-03-20T01:27:38;97559.88;;;6.93;65.89
16461;BME280;8341;42.048;24.650;2023-03-20T01:30:16;97567.56;;;6.94;64.76
16461;BME280;8341;42.048;24.650;2023-03-20T01:32:44;97568.44;;;6.91;64.97
16461;BME280;8341;42.048;24.650;2023-03-20T01:35:26;97567.81;;;6.87;64.94
16461;BME280;8341;42.048;24.650;2023-03-20T01:37:54;97568.06;;;6.80;65.09
16461;BME280;8341;42.048;24.650;2023-03-20T01:40:31;97559.75;;;6.62;65.58
16461;BME280;8341;42.048;24.650;2023-03-20T01:42:59;97560.69;;;6.68;65.07
16461;BME280;8341;42.048;24.650;2023-03-20T01:45:31;97531.53;;;6.38;65.92
16461;BME280;8341;42.048;24.650;2023-03-20T01:48:04;97554.75;;;6.61;65.55
16461;BME280;8341;42.048;24.650;2023-03-20T01:50:39;97546.94;;;6.63;65.47
16461;BME280;8341;42.048;24.650;2023-03-20T01:53:09;97545.00;;;6.63;65.80
16461;BME280;8341;42.048;24.650;2023-03-20T01:55:38;97479.03;;;6.23;65.51
16461;BME280;8341;42.048;24.650;2023-03-20T01:58:09;97548.16;;;6.62;65.88
16461;BME280;8341;42.048;24.650;2023-03-20T02:00:38;97544.94;;;6.54;66.62
16461;BME280;8341;42.048;24.650;2023-03-20T02:03:07;97547.59;;;6.67;66.78
16461;BME280;8341;42.048;24.650;2023-03-20T02:05:35;97538.47;;;6.39;67.46
16461;BME280;8341;42.048;24.650;2023-03-20T02:08:23;97546.13;;;6.53;66.42
16461;BME280;8341;42.048;24.650;2023-03-20T02:10:52;97544.78;;;6.58;66.41
16461;BME280;8341;42.048;24.650;2023-03-20T02:13:20;97541.66;;;6.59;66.78
16461;BME280;8341;42.048;24.650;2023-03-20T02:15:58;97545.56;;;6.58;66.52
16461;BME280;8341;42.048;24.650;2023-03-20T02:18:27;97541.50;;;6.41;66.67
16461;BME280;8341;42.048;24.650;2023-03-20T02:24:16;97524.25;;;6.35;66.62
16461;BME280;8341;42.048;24.650;2023-03-20T02:26:59;97541.25;;;6.48;65.92
16461;BME280;8341;42.048;24.650;2023-03-20T02:39:29;97531.13;;;6.61;66.43
16461;BME280;8341;42.048;24.650;2023-03-20T02:42:03;97533.34;;;6.54;66.11
16461;BME280;8341;42.048;24.650;2023-03-20T02:44:37;97522.09;;;6.43;66.59
16461;BME280;8341;42.048;24.650;2023-03-20T02:47:09;97524.47;;;6.41;66.57
16461;BME280;8341;42.048;24.650;2023-03-20T02:49:50;97512.25;;;6.36;66.49
16461;BME280;8341;42.048;24.650;2023-03-20T02:52:21;97519.84;;;6.28;66.52
16461;BME280;8341;42.048;24.650;2023-03-20T02:54:57;97514.22;;;6.23;66.54
16461;BME280;8341;42.048;24.650;2023-03-20T02:57:35;97526.44;;;6.27;66.74
16461;BME280;8341;42.048;24.650;2023-03-20T03:00:09;97515.50;;;6.31;66.87
16461;BME280;8341;42.048;24.650;2023-03-20T03:02:43;97522.63;;;6.38;66.59
16461;BME280;8341;42.048;24.650;2023-03-20T03:05:15;97527.84;;;6.32;67.04
16461;BME280;8341;42.048;24.650;2023-03-20T03:07:44;97517.16;;;6.28;66.80
16461;BME280;8341;42.048;24.650;2023-03-20T03:10:17;97517.00;;;6.32;67.31
16461;BME280;8341;42.048;24.650;2023-03-20T03:12:48;97524.72;;;6.34;67.51
16461;BME280;8341;42.048;24.650;2023-03-20T03:15:21;97516.16;;;6.35;66.52
16461;BME280;8341;42.048;24.650;2023-03-20T03:17:51;97516.16;;;6.35;66.36
16461;BME280;8341;42.048;24.650;2023-03-20T03:20:21;97517.72;;;6.11;67.43
16461;BME280;8341;42.048;24.650;2023-03-20T03:22:49;97514.78;;;6.05;68.04
16461;BME280;8341;42.048;24.650;2023-03-20T03:25:20;97518.25;;;6.18;67.66
16461;BME280;8341;42.048;24.650;2023-03-20T03:27:53;97512.16;;;6.14;67.23
16461;BME280;8341;42.048;24.650;2023-03-20T03:30:25;97512.59;;;6.25;67.41
16461;BME280;8341;42.048;24.650;2023-03-20T03:33:07;97518.44;;;6.24;67.14
16461;BME280;8341;42.048;24.650;2023-03-20T03:35:35;97516.72;;;6.17;67.30
16461;BME280;8341;42.048;24.650;2023-03-20T03:38:11;97509.22;;;6.21;67.27
16461;BME280;8341;42.048;24.650;2023-03-20T03:40:45;97477.78;;;5.90;67.36
16461;BME280;8341;42.048;24.650;2023-03-20T03:43:23;97512.72;;;6.09;67.56
16461;BME280;8341;42.048;24.650;2023-03-20T03:45:57;97513.94;;;6.08;67.75
16461;BME280;8341;42.048;24.650;2023-03-20T03:48:27;97504.50;;;6.13;68.03
16461;BME280;8341;42.048;24.650;2023-03-20T03:51:00;97518.13;;;6.22;67.92
16461;BME280;8341;42.048;24.650;2023-03-20T03:53:30;97515.00;;;6.11;67.63
16461;BME280;8341;42.048;24.650;2023-03-20T03:56:04;97504.81;;;5.64;69.53
16461;BME280;8341;42.048;24.650;2023-03-20T03:58:33;97494.41;;;5.76;69.43
16461;BME280;8341;42.048;24.650;2023-03-20T04:01:03;97474.41;;;5.60;69.02
16461;BME280;8341;42.048;24.650;2023-03-20T04:03:34;97516.84;;;5.89;69.91
16461;BME280;8341;42.048;24.650;2023-03-20T04:06:03;97518.69;;;5.92;69.80
16461;BME280;8341;42.048;24.650;2023-03-20T04:08:32;97520.22;;;5.93;68.88
16461;BME280;8341;42.048;24.650;2023-03-20T04:11:01;97520.22;;;5.93;68.61
16461;BME280;8341;42.048;24.650;2023-03-20T04:13:28;97522.94;;;5.93;68.65
16461;BME280;8341;42.048;24.650;2023-03-20T04:15:54;97520.94;;;5.81;69.63
16461;BME280;8341;42.048;24.650;2023-03-20T04:18:21;97515.41;;;5.84;69.37
16461;BME280;8341;42.048;24.650;2023-03-20T04:20:48;97516.41;;;5.78;70.23
16461;BME280;8341;42.048;24.650;2023-03-20T04:23:16;97500.16;;;5.65;70.68
16461;BME280;8341;42.048;24.650;2023-03-20T04:25:43;97514.59;;;5.87;70.74
16461;BME280;8341;42.048;24.650;2023-03-20T04:28:11;97506.34;;;5.91;70.03
16461;BME280;8341;42.048;24.650;2023-03-20T04:30:40;97501.28;;;5.93;70.07
16461;BME280;8341;42.048;24.650;2023-03-20T04:33:08;97506.16;;;5.85;70.07
16461;BME280;8341;42.048;24.650;2023-03-20T04:35:35;97504.94;;;5.86;69.83
16461;BME280;8341;42.048;24.650;2023-03-20T04:38:02;97486.75;;;5.61;69.46
16461;BME280;8341;42.048;24.650;2023-03-20T04:40:29;97505.78;;;5.70;70.39
16461;BME280;8341;42.048;24.650;2023-03-20T04:42:56;97511.84;;;5.75;71.68
16461;BME280;8341;42.048;24.650;2023-03-20T04:45:24;97512.81;;;5.81;70.60
16461;BME280;8341;42.048;24.650;2023-03-20T04:47:51;97507.53;;;5.77;70.14
16461;BME280;8341;42.048;24.650;2023-03-20T04:50:18;97513.56;;;5.81;70.07
16461;BME280;8341;42.048;24.650;2023-03-20T04:52:44;97500.72;;;5.73;70.55
16461;BME280;8341;42.048;24.650;2023-03-20T04:55:11;97528.53;;;5.86;70.25
16461;BME280;8341;42.048;24.650;2023-03-20T04:57:38;97526.50;;;5.90;70.08
16461;BME280;8341;42.048;24.650;2023-03-20T05:00:06;97525.63;;;5.93;70.09
16461;BME280;8341;42.048;24.650;2023-03-20T05:02:35;97525.72;;;6.02;69.75
16461;BME280;8341;42.048;24.650;2023-03-20T05:05:02;97521.06;;;6.15;69.12
16461;BME280;8341;42.048;24.650;2023-03-20T05:07:30;97524.06;;;6.17;69.53
16461;BME280;8341;42.048;24.650;2023-03-20T05:09:57;97525.06;;;6.23;68.46
16461;BME280;8341;42.048;24.650;2023-03-20T05:12:24;97522.94;;;6.40;67.54
16461;BME280;8341;42.048;24.650;2023-03-20T05:14:51;97528.03;;;6.50;68.73
16461;BME280;8341;42.048;24.650;2023-03-20T05:17:19;97534.25;;;6.72;67.95
16461;BME280;8341;42.048;24.650;2023-03-20T05:19:47;97534.41;;;6.90;68.02
16461;BME280;8341;42.048;24.650;2023-03-20T05:22:14;97534.78;;;7.02;67.40
16461;BME280;8341;42.048;24.650;2023-03-20T05:24:41;97533.91;;;7.05;66.56
16461;BME280;8341;42.048;24.650;2023-03-20T05:27:08;97529.88;;;7.09;65.81
16461;BME280;8341;42.048;24.650;2023-03-20T05:29:35;97522.19;;;7.08;65.74
16461;BME280;8341;42.048;24.650;2023-03-20T05:32:03;97531.44;;;7.19;64.71
16461;BME280;8341;42.048;24.650;2023-03-20T05:34:29;97521.72;;;7.31;65.05
16461;BME280;8341;42.048;24.650;2023-03-20T05:36:59;97535.03;;;7.38;63.80
16461;BME280;8341;42.048;24.650;2023-03-20T05:39:26;97527.25;;;7.49;63.38
16461;BME280;8341;42.048;24.650;2023-03-20T05:41:52;97521.75;;;7.62;63.75
16461;BME280;8341;42.048;24.650;2023-03-20T05:44:19;97523.19;;;7.75;64.58
16461;BME280;8341;42.048;24.650;2023-03-20T05:46:46;97518.53;;;7.85;63.87
16461;BME280;8341;42.048;24.650;2023-03-20T05:49:13;97517.56;;;7.70;63.35
16461;BME280;8341;42.048;24.650;2023-03-20T05:51:40;97525.41;;;7.68;62.75
16461;BME280;8341;42.048;24.650;2023-03-20T05:54:08;97523.06;;;7.88;61.83
16461;BME280;8341;42.048;24.650;2023-03-20T05:56:35;97527.09;;;7.83;61.49
16461;BME280;8341;42.048;24.650;2023-03-20T05:59:02;97517.69;;;7.66;61.34
16461;BME280;8341;42.048;24.650;2023-03-20T06:01:28;97526.78;;;7.72;61.93
16461;BME280;8341;42.048;24.650;2023-03-20T06:03:55;97525.91;;;7.84;62.21
16461;BME280;8341;42.048;24.650;2023-03-20T06:06:22;97532.63;;;8.01;62.72
16461;BME280;8341;42.048;24.650;2023-03-20T06:08:49;97533.53;;;8.07;62.83
16461;BME280;8341;42.048;24.650;2023-03-20T06:11:17;97521.81;;;8.19;62.80
16461;BME280;8341;42.048;24.650;2023-03-20T06:13:44;97520.56;;;8.42;63.46
16461;BME280;8341;42.048;24.650;2023-03-20T06:16:11;97522.97;;;8.49;63.10
16461;BME280;8341;42.048;24.650;2023-03-20T06:18:38;97527.81;;;8.63;63.61
16461;BME280;8341;42.048;24.650;2023-03-20T06:21:05;97520.44;;;8.73;63.75
16461;BME280;8341;42.048;24.650;2023-03-20T06:23:31;97527.97;;;8.87;63.96
16461;BME280;8341;42.048;24.650;2023-03-20T06:25:58;97529.34;;;9.01;63.75
16461;BME280;8341;42.048;24.650;2023-03-20T06:28:27;97531.59;;;8.84;63.86
16461;BME280;8341;42.048;24.650;2023-03-20T06:30:54;97531.47;;;9.06;62.92
16461;BME280;8341;42.048;24.650;2023-03-20T06:33:21;97527.66;;;9.21;62.55
16461;BME280;8341;42.048;24.650;2023-03-20T06:35:48;97521.00;;;9.31;62.08
16461;BME280;8341;42.048;24.650;2023-03-20T06:38:15;97523.44;;;9.29;61.56
16461;BME280;8341;42.048;24.650;2023-03-20T06:40:42;97516.44;;;9.47;61.99
16461;BME280;8341;42.048;24.650;2023-03-20T06:43:09;97516.34;;;8.96;61.56
16461;BME280;8341;42.048;24.650;2023-03-20T06:45:38;97515.88;;;8.79;63.88
16461;BME280;8341;42.048;24.650;2023-03-20T06:48:05;97523.09;;;8.46;66.97
16461;BME280;8341;42.048;24.650;2023-03-20T06:50:32;97520.22;;;8.40;67.84
16461;BME280;8341;42.048;24.650;2023-03-20T06:52:59;97470.66;;;8.18;68.21
16461;BME280;8341;42.048;24.650;2023-03-20T06:55:26;97518.91;;;8.54;67.70
16461;BME280;8341;42.048;24.650;2023-03-20T06:57:53;97512.84;;;8.59;68.21
16461;BME280;8341;42.048;24.650;2023-03-20T07:00:20;97517.84;;;8.60;68.12
16461;BME280;8341;42.048;24.650;2023-03-20T07:02:48;97504.25;;;8.51;67.01
16461;BME280;8341;42.048;24.650;2023-03-20T07:05:15;97477.00;;;8.24;67.84
16461;BME280;8341;42.048;24.650;2023-03-20T07:07:42;97523.09;;;8.46;67.94
16461;BME280;8341;42.048;24.650;2023-03-20T07:10:10;97525.38;;;8.47;67.45
16461;BME280;8341;42.048;24.650;2023-03-20T07:12:37;97523.72;;;8.50;66.94
16461;BME280;8341;42.048;24.650;2023-03-20T07:15:05;97521.59;;;8.63;66.97
16461;BME280;8341;42.048;24.650;2023-03-20T07:17:32;97524.94;;;8.76;65.40
16461;BME280;8341;42.048;24.650;2023-03-20T07:20:01;97529.94;;;8.77;65.68
16461;BME280;8341;42.048;24.650;2023-03-20T07:22:29;97527.69;;;8.85;65.89
16461;BME280;8341;42.048;24.650;2023-03-20T07:24:56;97527.22;;;8.96;65.15
16461;BME280;8341;42.048;24.650;2023-03-20T07:27:23;97504.41;;;8.93;64.89
16461;BME280;8341;42.048;24.650;2023-03-20T07:29:50;97519.19;;;9.19;65.28
16461;BME280;8341;42.048;24.650;2023-03-20T07:32:17;97512.22;;;9.27;64.86
16461;BME280;8341;42.048;24.650;2023-03-20T07:34:45;97506.91;;;9.33;64.34
16461;BME280;8341;42.048;24.650;2023-03-20T07:37:15;97518.84;;;9.44;64.03
16461;BME280;8341;42.048;24.650;2023-03-20T07:39:42;97514.09;;;9.63;63.36
16461;BME280;8341;42.048;24.650;2023-03-20T07:42:09;97507.91;;;9.63;63.46
16461;BME280;8341;42.048;24.650;2023-03-20T07:44:36;97517.22;;;9.80;62.07
16461;BME280;8341;42.048;24.650;2023-03-20T07:47:03;97513.59;;;9.83;62.16
16461;BME280;8341;42.048;24.650;2023-03-20T07:49:30;97517.28;;;10.03;60.70
16461;BME280;8341;42.048;24.650;2023-03-20T07:51:57;97514.66;;;10.18;61.16
16461;BME280;8341;42.048;24.650;2023-03-20T07:54:25;97482.28;;;10.11;59.85
16461;BME280;8341;42.048;24.650;2023-03-20T07:56:52;97513.81;;;10.59;59.47
16461;BME280;8341;42.048;24.650;2023-03-20T07:59:19;97511.91;;;10.51;58.69
16461;BME280;8341;42.048;24.650;2023-03-20T08:01:46;97509.94;;;10.51;58.94
16461;BME280;8341;42.048;24.650;2023-03-20T08:04:13;97514.72;;;10.80;58.87
16461;BME280;8341;42.048;24.650;2023-03-20T08:06:43;97521.22;;;10.83;59.00
16461;BME280;8341;42.048;24.650;2023-03-20T08:09:10;97509.88;;;10.99;58.17
16461;BME280;8341;42.048;24.650;2023-03-20T08:11:38;97508.56;;;11.09;57.96
16461;BME280;8341;42.048;24.650;2023-03-20T08:14:05;97515.53;;;11.10;57.84
16461;BME280;8341;42.048;24.650;2023-03-20T08:16:33;97515.38;;;11.28;57.68
16461;BME280;8341;42.048;24.650;2023-03-20T08:19:00;97514.31;;;11.40;57.60
16461;BME280;8341;42.048;24.650;2023-03-20T08:21:27;97509.91;;;11.28;56.97
16461;BME280;8341;42.048;24.650;2023-03-20T08:23:54;97507.72;;;11.17;57.54
16461;BME280;8341;42.048;24.650;2023-03-20T08:26:22;97512.34;;;11.41;58.17
16461;BME280;8341;42.048;24.650;2023-03-20T08:28:50;97511.25;;;11.47;58.91
16461;BME280;8341;42.048;24.650;2023-03-20T08:31:17;97523.28;;;11.41;57.80
16461;BME280;8341;42.048;24.650;2023-03-20T08:33:45;97516.69;;;11.62;57.93
16461;BME280;8341;42.048;24.650;2023-03-20T08:36:12;97528.78;;;11.70;57.45
16461;BME280;8341;42.048;24.650;2023-03-20T08:38:40;97519.38;;;11.71;57.61
16461;BME280;8341;42.048;24.650;2023-03-20T08:41:07;97523.38;;;11.61;57.84
16461;BME280;8341;42.048;24.650;2023-03-20T08:43:34;97520.19;;;11.62;57.39
16461;BME280;8341;42.048;24.650;2023-03-20T08:46:03;97487.59;;;11.44;57.74
16461;BME280;8341;42.048;24.650;2023-03-20T08:48:29;97509.16;;;11.71;57.16
16461;BME280;8341;42.048;24.650;2023-03-20T08:50:56;97511.50;;;11.64;57.88
16461;BME280;8341;42.048;24.650;2023-03-20T08:53:23;97484.09;;;11.87;57.28
16461;BME280;8341;42.048;24.650;2023-03-20T08:55:52;97508.75;;;12.08;54.88
16461;BME280;8341;42.048;24.650;2023-03-20T08:58:19;97505.50;;;12.24;55.08
16461;BME280;8341;42.048;24.650;2023-03-20T09:00:46;97494.31;;;12.42;55.82
16461;BME280;8341;42.048;24.650;2023-03-20T09:03:16;97494.31;;;12.62;54.68
16461;BME280;8341;42.048;24.650;2023-03-20T09:05:43;97488.06;;;12.41;54.28
16461;BME280;8341;42.048;24.650;2023-03-20T09:08:11;97490.19;;;12.72;54.09
16461;BME280;8341;42.048;24.650;2023-03-20T09:10:37;97508.06;;;12.68;53.41
16461;BME280;8341;42.048;24.650;2023-03-20T09:13:05;97501.63;;;12.71;53.17
16461;BME280;8341;42.048;24.650;2023-03-20T09:15:32;97494.34;;;13.08;52.80
16461;BME280;8341;42.048;24.650;2023-03-20T09:17:59;97499.09;;;13.33;51.60
16461;BME280;8341;42.048;24.650;2023-03-20T09:20:27;97476.47;;;13.12;51.96
16461;BME280;8341;42.048;24.650;2023-03-20T09:22:55;97475.44;;;13.36;51.14
16461;BME280;8341;42.048;24.650;2023-03-20T09:25:22;97476.97;;;13.68;50.55
16461;BME280;8341;42.048;24.650;2023-03-20T09:27:50;97481.34;;;13.54;51.01
16461;BME280;8341;42.048;24.650;2023-03-20T09:30:19;97479.06;;;13.78;51.22
16461;BME280;8341;42.048;24.650;2023-03-20T09:32:46;97467.13;;;13.87;50.92
16461;BME280;8341;42.048;24.650;2023-03-20T09:35:13;97476.50;;;14.06;50.27
16461;BME280;8341;42.048;24.650;2023-03-20T09:37:42;97462.41;;;14.24;50.63
16461;BME280;8341;42.048;24.650;2023-03-20T09:40:27;97473.44;;;14.35;49.78
16461;BME280;8341;42.048;24.650;2023-03-20T09:43:03;97457.63;;;14.19;49.21
16461;BME280;8341;42.048;24.650;2023-03-20T09:45:47;97471.53;;;14.53;49.45
16461;BME280;8341;42.048;24.650;2023-03-20T09:48:23;97466.09;;;14.69;49.11
16461;BME280;8341;42.048;24.650;2023-03-20T09:50:59;97460.59;;;14.58;49.21
16461;BME280;8341;42.048;24.650;2023-03-20T09:53:33;97459.59;;;14.56;48.71
16461;BME280;8341;42.048;24.650;2023-03-20T09:56:04;97451.84;;;14.60;48.27
16461;BME280;8341;42.048;24.650;2023-03-20T09:58:36;97437.00;;;14.94;47.74
16461;BME280;8341;42.048;24.650;2023-03-20T10:01:06;97439.00;;;15.10;47.36
16461;BME280;8341;42.048;24.650;2023-03-20T10:03:42;97451.47;;;15.00;46.96
16461;BME280;8341;42.048;24.650;2023-03-20T10:06:12;97419.56;;;15.25;47.15
16461;BME280;8341;42.048;24.650;2023-03-20T10:08:42;97448.56;;;15.64;46.04
16461;BME280;8341;42.048;24.650;2023-03-20T10:11:23;97442.56;;;15.55;46.12
16461;BME280;8341;42.048;24.650;2023-03-20T10:14:06;97441.78;;;15.88;45.83
16461;BME280;8341;42.048;24.650;2023-03-20T10:16:44;97442.31;;;15.64;45.08
16461;BME280;8341;42.048;24.650;2023-03-20T10:19:21;97434.56;;;15.79;45.02
16461;BME280;8341;42.048;24.650;2023-03-20T10:21:52;97431.56;;;15.66;44.75
16461;BME280;8341;42.048;24.650;2023-03-20T10:24:27;97435.03;;;15.94;44.79
16461;BME280;8341;42.048;24.650;2023-03-20T10:26:58;97421.75;;;16.09;44.65
16461;BME280;8341;42.048;24.650;2023-03-20T10:29:34;97431.47;;;16.16;44.87
16461;BME280;8341;42.048;24.650;2023-03-20T10:32:10;97422.53;;;15.99;44.67
16461;BME280;8341;42.048;24.650;2023-03-20T10:34:48;97416.47;;;16.17;44.70
16461;BME280;8341;42.048;24.650;2023-03-20T10:37:30;97409.66;;;16.35;44.58
16461;BME280;8341;42.048;24.650;2023-03-20T10:40:11;97412.06;;;16.60;44.21
16461;BME280;8341;42.048;24.650;2023-03-20T10:42:44;97402.53;;;16.67;43.37
16461;BME280;8341;42.048;24.650;2023-03-20T10:45:22;97380.28;;;16.59;43.92
16461;BME280;8341;42.048;24.650;2023-03-20T10:47:53;97392.34;;;16.45;43.85
16461;BME280;8341;42.048;24.650;2023-03-20T10:50:23;97388.88;;;16.91;44.70
16461;BME280;8341;42.048;24.650;2023-03-20T10:52:55;97383.09;;;16.95;43.54
16461;BME280;8341;42.048;24.650;2023-03-20T10:55:26;97357.38;;;17.16;42.91
16461;BME280;8341;42.048;24.650;2023-03-20T10:57:57;97370.59;;;17.23;42.61
16461;BME280;8341;42.048;24.650;2023-03-20T11:00:25;97365.28;;;16.96;43.06
16461;BME280;8341;42.048;24.650;2023-03-20T11:02:53;97350.81;;;17.25;42.64
16461;BME280;8341;42.048;24.650;2023-03-20T11:05:22;97353.56;;;17.25;42.49
16461;BME280;8341;42.048;24.650;2023-03-20T11:08:00;97352.34;;;17.20;42.34
16461;BME280;8341;42.048;24.650;2023-03-20T11:10:30;97352.38;;;17.15;42.89
16461;BME280;8341;42.048;24.650;2023-03-20T11:13:11;97328.38;;;17.10;43.09
16461;BME280;8341;42.048;24.650;2023-03-20T11:15:39;97342.03;;;17.21;42.68
16461;BME280;8341;42.048;24.650;2023-03-20T11:18:08;97340.41;;;17.36;42.46
16461;BME280;8341;42.048;24.650;2023-03-20T11:20:44;97339.13;;;17.43;43.05
16461;BME280;8341;42.048;24.650;2023-03-20T11:23:14;97322.13;;;17.33;42.97
16461;BME280;8341;42.048;24.650;2023-03-20T11:25:49;97333.03;;;17.50;41.81
16461;BME280;8341;42.048;24.650;2023-03-20T11:28:19;97320.09;;;17.69;42.25
16461;BME280;8341;42.048;24.650;2023-03-20T11:30:47;97329.41;;;17.66;42.32
16461;BME280;8341;42.048;24.650;2023-03-20T11:33:16;97305.13;;;17.59;42.13
16461;BME280;8341;42.048;24.650;2023-03-20T11:35:44;97317.94;;;17.81;41.98
16461;BME280;8341;42.048;24.650;2023-03-20T11:38:14;97308.31;;;17.87;41.15
16461;BME280;8341;42.048;24.650;2023-03-20T11:40:42;97301.97;;;18.17;41.01
16461;BME280;8341;42.048;24.650;2023-03-20T11:43:12;97312.97;;;17.98;40.74
16461;BME280;8341;42.048;24.650;2023-03-20T11:45:41;97299.97;;;18.17;41.09
16461;BME280;8341;42.048;24.650;2023-03-20T11:48:16;97297.69;;;18.15;39.11
16461;BME280;8341;42.048;24.650;2023-03-20T11:50:47;97291.94;;;18.56;39.89
16461;BME280;8341;42.048;24.650;2023-03-20T11:53:26;97285.25;;;18.65;39.58
16461;BME280;8341;42.048;24.650;2023-03-20T11:56:01;97284.81;;;18.42;38.07
16461;BME280;8341;42.048;24.650;2023-03-20T11:58:30;97282.25;;;18.44;38.50
16461;BME280;8341;42.048;24.650;2023-03-20T12:01:00;97277.56;;;18.39;39.36
16461;BME280;8341;42.048;24.650;2023-03-20T12:03:41;97278.31;;;18.40;38.76
16461;BME280;8341;42.048;24.650;2023-03-20T12:06:13;97274.69;;;18.50;39.10
16461;BME280;8341;42.048;24.650;2023-03-20T12:08:43;97275.13;;;18.86;38.75
16461;BME280;8341;42.048;24.650;2023-03-20T12:11:37;97274.28;;;18.91;38.35
16461;BME280;8341;42.048;24.650;2023-03-20T12:14:15;97265.28;;;18.59;38.38
16461;BME280;8341;42.048;24.650;2023-03-20T12:16:45;97262.94;;;18.95;38.07
16461;BME280;8341;42.048;24.650;2023-03-20T12:19:18;97264.34;;;19.01;37.44
16461;BME280;8341;42.048;24.650;2023-03-20T12:21:51;97263.53;;;18.88;37.55
16461;BME280;8341;42.048;24.650;2023-03-20T12:24:28;97260.09;;;19.13;37.54
16461;BME280;8341;42.048;24.650;2023-03-20T12:27:10;97250.56;;;19.27;37.69
16461;BME280;8341;42.048;24.650;2023-03-20T12:29:46;97250.22;;;19.05;37.50
16461;BME280;8341;42.048;24.650;2023-03-20T12:32:18;97253.69;;;18.92;36.45
16461;BME280;8341;42.048;24.650;2023-03-20T12:34:49;97249.97;;;18.90;37.46
16461;BME280;8341;42.048;24.650;2023-03-20T12:37:17;97246.69;;;19.04;37.94
16461;BME280;8341;42.048;24.650;2023-03-20T12:39:49;97252.38;;;18.80;36.68
16461;BME280;8341;42.048;24.650;2023-03-20T12:42:29;97244.47;;;18.71;38.15
16461;BME280;8341;42.048;24.650;2023-03-20T12:45:04;97244.31;;;18.95;38.57
16461;BME280;8341;42.048;24.650;2023-03-20T12:47:58;97234.13;;;19.03;37.32
16461;BME280;8341;42.048;24.650;2023-03-20T12:50:30;97236.28;;;19.23;37.43
16461;BME280;8341;42.048;24.650;2023-03-20T12:53:15;97246.19;;;19.19;36.05
16461;BME280;8341;42.048;24.650;2023-03-20T12:55:56;97235.25;;;19.26;36.17
16461;BME280;8341;42.048;24.650;2023-03-20T12:58:35;97240.06;;;19.52;36.18
16461;BME280;8341;42.048;24.650;2023-03-20T13:01:09;97230.72;;;19.55;33.22
16461;BME280;8341;42.048;24.650;2023-03-20T13:03:47;97230.50;;;19.53;32.66
16461;BME280;8341;42.048;24.650;2023-03-20T13:06:29;97227.63;;;19.59;33.43
16461;BME280;8341;42.048;24.650;2023-03-20T13:09:32;97228.47;;;19.67;34.15
16461;BME280;8341;42.048;24.650;2023-03-20T13:12:06;97230.59;;;19.87;34.31
16461;BME280;8341;42.048;24.650;2023-03-20T13:14:40;97216.75;;;19.87;33.80
16461;BME280;8341;42.048;24.650;2023-03-20T13:17:16;97199.00;;;19.69;33.06
16461;BME280;8341;42.048;24.650;2023-03-20T13:20:05;97207.81;;;19.68;31.33
16461;BME280;8341;42.048;24.650;2023-03-20T13:22:47;97208.38;;;19.66;32.42
16461;BME280;8341;42.048;24.650;2023-03-20T13:25:30;97181.84;;;19.84;33.38
16461;BME280;8341;42.048;24.650;2023-03-20T13:28:04;97202.06;;;19.79;31.16
16461;BME280;8341;42.048;24.650;2023-03-20T13:30:39;97207.22;;;19.49;30.83
16461;BME280;8341;42.048;24.650;2023-03-20T13:33:23;97205.50;;;19.59;32.02
16461;BME280;8341;42.048;24.650;2023-03-20T13:35:56;97203.25;;;19.57;32.36
16461;BME280;8341;42.048;24.650;2023-03-20T13:38:29;97199.31;;;19.79;32.17